Aviation Digital Data Service (ADDS)

Output produced by METARs form (0048 UTC 24 May 2019)
found at http://www.aviationweather.gov/metar/data/
 
LFML 240030Z AUTO 09005KT CAVOK 15/10 Q1014 NOSIG
TAF LFML 232000Z 2321/2503 VRB05KT 9999 FEW020 TX24/2412Z TN14/2404Z 
     TEMPO 2403/2408 BKN014 
     BECMG 2408/2410 18010KT 
     BECMG 2419/2421 VRB05KT 
     BECMG 2501/2503 16008KT